To NAV CANADA Home Page Login to a new session Search on AWWS site Feedback and Comments Disclaimer Vers la page française équivalente Tips FAQ What's new on the site To the Forecasts and Observations / NOTAM section To "File a Flight Plan" website Publications and other links Update of the User's profile FIC Telephone Numbers My Weather Data Folder Route Weather Data Regional Weather Data Local Weather Data To the Forecasts and Observations / NOTAM section
Request Generated 09/27/2016 at 15:29:35 UTC . Weather information available at that time is displayed.

METAR/TAF

THUNDER BAY/ON    (show WxCam)

METAR CYQT 271500Z 29008G15KT 260V330 20SM BKN017 BKN042 10/09 A2953
RMK SC6SC1 SLP006=
METAR CYQT 271400Z 28009KT 240V320 20SM -RA SCT017 BKN042 09/08 A2951
RMK SF4SC3 INTMT -RA SLP000=
METAR CYQT 271300Z 30010G17KT 20SM -RA FEW020 BKN041 BKN065 09/07
A2950 RMK SF2SC3SC2 SLP995=

TAF AMD CYQT 271522Z 2715/2802 30012G22KT P6SM -RA FEW020 BKN040
TEMPO 2715/2720 BKN020
BECMG 2720/2722 02012G22KT
RMK NXT FCST BY 272000Z=
Your time UTC time
Weather data provided by Environment Canada and NAV CANADA